Pineville, MO

11:43 PM CDT on September 17, 2014 (GMT -0500)
Bentonville Municipal-Thaden | Change Station
CLOSE
Current Station
Airport
Location: Bentonville,
Elevation: 1296 ft
Nearby Weather Stations

Elev 1296 ft 36.34 °N, 94.22 °W | Updated 8 minutes ago

Clear
Clear
64 °F
Feels Like 64 °F
N
4
Wind Variable Wind from SSE

Today
High -- | Low -- °F
--% Chance of Precip.
Yesterday
High -- | Low -- °F
Precip. -- in
7:01 AM 7:21 PM
Waning Crescent, 30% visible
Pressure 29.95 in
Visibility 10.0 miles
Clouds Clear
Dew Point 63 °F
Humidity 94%
Rainfall 1.93 in
Snow Depth Not available.
UV 0 out of 12
Pollen 6.20 out of 12
Air Quality Not available.
Flu Activity Not available.
METAR KVBT 180435Z AUTO 16003KT 10SM CLR 18/17 A2995 RMK AO1

More Conditions Fewer Conditions

Pressure 29.95 in
Visibility 10.0 miles
Clouds Clear
Dew Point 63 °F
Humidity 94%
Rainfall 1.93 in
Snow Depth Not available.
UV 0 out of 12
Pollen 6.20 out of 12
Air Quality Not available.
Flu Activity Not available.
METAR KVBT 180435Z AUTO 16003KT 10SM CLR 18/17 A2995 RMK AO1

More Conditions Fewer Conditions

10-Day Weather Forecast

Almanac

Astronomy

Sep. 17, 2014 Rise Set
Actual Time 7:01 AM CDT 7:21 PM CDT
Civil Twilight 6:35 AM CDT 7:47 PM CDT
Nautical Twilight 6:05 AM CDT 8:17 PM CDT
Astronomical Twilight 5:34 AM CDT 8:48 PM CDT
Moon 1:08 AM CDT (9/17) 3:25 PM CDT (9/17)
Length of Visible Light 13h 12m
Length of Day
12h 20m
Tomorrow will be 2m 17s shorter.
Waning Crescent, 30% of the Moon is Illuminated
Sep 18
Waning Crescent
Sep 24
New
Oct 1
First Quarter
Oct 8
Full
Oct 15
Last Quarter

Yesterday's Extremes

State Highs State Lows

Community

WunderPhotos

Upload Photos

1,754,295 photos uploaded!

Nearby

Snow Depth

Station Depth Elevation
No new snow has been reported.

Earthquake Activity

City Distance Mag. Time & Date
No recent earthquake activity has been reported nearby.
Minimum magnitude displayed is 2.5.

Coastal Water Temperatures

Place Temperature
No Stations Reporting

Nearby Weather Stations